Air Navigation Services of Czech Republic
Airport: LKPR Updated:  24.07.2021 07:00:29  UTC
 METAR LKPR 24.07. 07:00 ...
METAR LKPR 240700Z 07004KT 030V100 CAVOK 20/14 Q1014 NOSIG RMK REG QNH 1012=
 TAF LKPR 24.07. 05:00 ...
TAF LKPR 240500Z 2406/2512 12006KT CAVOK      BECMG 2500/2502 22008KT 9999 SCT040      TEMPO 2502/2512 7000 SHRA SCT040TCU      PROB30 TEMPO 2502/2512 4000 TSRA SCT030CB      BECMG 2506/2508 09008KT=